Time;durP1;ratioP1;P1;durP2;ratioP2;P2;SDS_P1;SDS_P2;PMS_P1;PMS_P2;Temp;Humidity;BMP_temperature;BMP_pressure;BME280_temperature;BME280_humidity;BME280_pressure;Samples;Min_cycle;Max_cycle;Signal;HPM_P1;HPM_P2
2022/02/05 00:00:04;;;;;;;4.97;1.85;;;;;;;4.93;89.22;101564.78;10448537;28;20045;-79
2022/02/05 00:04:46;;;;;;;8.85;2.90;;;;;;;4.93;89.57;101583.59;10447406;28;20099;-80
2022/02/05 00:10:20;;;;;;;12.98;4.05;;;;;;;4.88;90.28;101589.41;10428078;28;20029;-80
2022/02/05 00:15:32;;;;;;;8.40;3.58;;;;;;;4.86;90.89;101582.47;10441697;28;20025;-80
2022/02/05 00:41:47;;;;;;;4.60;2.17;;;;;;;4.72;90.52;101597.16;10444260;28;20037;-80
2022/02/05 00:46:51;;;;;;;8.95;4.57;;;;;;;4.53;91.41;101614.13;10429124;28;20049;-80
2022/02/05 00:52:02;;;;;;;11.77;3.45;;;;;;;4.51;91.46;101623.28;10441072;28;20053;-79
2022/02/05 01:02:05;;;;;;;6.38;2.97;;;;;;;4.50;91.59;101624.25;10439839;28;20119;-80
2022/02/05 01:07:06;;;;;;;16.52;3.40;;;;;;;4.49;92.12;101652.91;10441471;28;20041;-79
2022/02/05 01:12:08;;;;;;;6.45;3.70;;;;;;;4.37;92.65;101654.91;10426443;28;20029;-80
2022/02/05 01:17:10;;;;;;;17.35;2.95;;;;;;;4.50;93.52;101651.06;10460862;28;20457;-79
2022/02/05 01:22:14;;;;;;;14.43;3.97;;;;;;;4.55;93.81;101648.84;10444600;28;20044;-79
2022/02/05 01:27:28;;;;;;;10.77;3.75;;;;;;;4.55;93.45;101657.72;10421516;28;20060;-79
2022/02/05 01:32:34;;;;;;;14.07;3.33;;;;;;;4.57;92.86;101662.97;10446950;28;20076;-79
2022/02/05 01:59:12;;;;;;;8.23;3.08;;;;;;;4.54;92.65;101711.53;10444142;28;20037;-80
2022/02/05 02:09:51;;;;;;;7.57;3.00;;;;;;;4.41;93.44;101718.00;10460142;28;20033;-80
2022/02/05 02:15:02;;;;;;;18.20;3.97;;;;;;;4.40;93.85;101727.03;10470921;28;20048;-79
2022/02/05 02:20:56;;;;;;;7.40;3.08;;;;;;;4.39;94.20;101730.66;10452848;28;20120;-79
2022/02/05 02:30:36;;;;;;;9.35;4.25;;;;;;;4.43;94.79;101739.28;10447133;28;20103;-79
2022/02/05 02:35:42;;;;;;;10.45;5.10;;;;;;;4.39;95.75;101740.56;10448891;28;20037;-80
2022/02/05 02:40:58;;;;;;;11.30;4.43;;;;;;;4.45;95.58;101752.56;10448103;28;20036;-80
2022/02/05 02:46:07;;;;;;;9.75;3.03;;;;;;;4.52;95.95;101759.09;10449278;28;20048;-80
2022/02/05 03:01:34;;;;;;;13.23;4.40;;;;;;;4.76;95.30;101770.31;10448147;28;20037;-79
2022/02/05 03:06:35;;;;;;;17.75;3.20;;;;;;;4.72;94.90;101768.88;10446746;28;20464;-79
2022/02/05 03:11:37;;;;;;;11.60;3.25;;;;;;;4.56;94.45;101771.22;10428307;28;20135;-79
2022/02/05 03:16:46;;;;;;;21.33;3.35;;;;;;;4.48;93.92;101774.59;10448684;28;20075;-79
2022/02/05 03:21:48;;;;;;;17.38;4.03;;;;;;;4.37;94.22;101772.00;10429875;28;20044;-80
2022/02/05 03:26:51;;;;;;;22.05;3.67;;;;;;;4.24;95.08;101785.66;10460102;28;20036;-79
2022/02/05 03:31:53;;;;;;;8.43;2.53;;;;;;;4.23;95.23;101797.38;10444740;28;20526;-79
2022/02/05 03:36:53;;;;;;;27.95;5.55;;;;;;;4.16;94.63;101793.53;10443809;28;20542;-80
2022/02/05 03:41:55;;;;;;;17.55;3.75;;;;;;;4.13;95.33;101793.78;10444088;28;20037;-79
2022/02/05 03:47:00;;;;;;;29.63;5.40;;;;;;;4.06;95.51;101795.31;10445668;28;20088;-79
2022/02/05 03:52:00;;;;;;;12.45;3.50;;;;;;;4.10;95.21;101810.16;10444214;28;20033;-79
2022/02/05 03:57:08;;;;;;;8.52;3.10;;;;;;;4.09;95.01;101816.50;10443840;28;20041;-79
2022/02/05 04:02:08;;;;;;;7.13;3.13;;;;;;;4.10;95.59;101823.56;10470255;28;20449;-78
2022/02/05 04:07:09;;;;;;;15.75;3.92;;;;;;;4.09;95.47;101824.53;10435986;28;20036;-79
2022/02/05 04:17:30;;;;;;;19.83;4.05;;;;;;;4.06;95.84;101832.84;10451449;28;20037;-80
2022/02/05 04:22:32;;;;;;;13.20;3.63;;;;;;;4.06;96.50;101841.72;10442552;28;20447;-79
2022/02/05 04:27:33;;;;;;;9.57;5.18;;;;;;;4.07;96.95;101842.56;10425258;28;20055;-79
2022/02/05 04:32:35;;;;;;;8.18;3.08;;;;;;;4.06;95.75;101841.72;10442650;28;20024;-80
2022/02/05 04:37:37;;;;;;;7.50;3.00;;;;;;;4.10;96.95;101851.19;10424256;28;20044;-78
2022/02/05 04:42:49;;;;;;;11.68;4.50;;;;;;;4.05;97.12;101852.56;10441128;28;20041;-79
2022/02/05 04:58:27;;;;;;;12.68;3.42;;;;;;;4.15;97.45;101861.53;10429674;28;20048;-79
2022/02/05 05:09:14;;;;;;;15.95;5.00;;;;;;;4.09;96.67;101879.00;10443639;28;20037;-79
2022/02/05 05:19:46;;;;;;;5.63;2.03;;;;;;;3.95;95.37;101890.03;10442315;28;20040;-78
2022/02/05 05:24:47;;;;;;;9.23;3.50;;;;;;;3.86;96.11;101888.13;10446520;28;20037;-79
2022/02/05 05:29:47;;;;;;;5.90;4.22;;;;;;;3.91;95.78;101893.94;10440533;28;20457;-78
2022/02/05 05:35:04;;;;;;;8.07;2.50;;;;;;;3.82;95.36;101892.03;10407687;28;20041;-79
2022/02/05 05:40:07;;;;;;;5.53;3.85;;;;;;;3.85;96.09;101887.28;10438474;28;20040;-79
2022/02/05 05:55:43;;;;;;;15.40;4.53;;;;;;;3.79;95.19;101881.59;10450481;28;20061;-78
2022/02/05 06:00:44;;;;;;;4.05;3.15;;;;;;;3.69;95.88;101882.34;10449227;28;20102;-79
2022/02/05 06:05:46;;;;;;;25.02;5.05;;;;;;;3.77;96.31;101889.75;10447049;28;20029;-79
2022/02/05 06:10:48;;;;;;;5.25;2.72;;;;;;;3.70;95.82;101885.88;10430896;28;20037;-78
2022/02/05 06:15:57;;;;;;;9.80;4.18;;;;;;;3.80;96.52;101889.50;10436738;28;20029;-79
2022/02/05 06:20:59;;;;;;;22.48;5.10;;;;;;;3.89;97.06;101902.13;10463848;28;20405;-79
2022/02/05 06:26:01;;;;;;;18.00;4.18;;;;;;;3.97;97.40;101907.69;10446436;28;20033;-79
2022/02/05 06:31:02;;;;;;;9.35;3.55;;;;;;;4.10;98.36;101914.69;10428208;28;20136;-79
2022/02/05 06:36:03;;;;;;;6.90;3.53;;;;;;;4.34;99.09;101904.56;10430086;28;20041;-80
2022/02/05 06:41:04;;;;;;;11.25;2.75;;;;;;;4.47;100.00;101907.03;10429901;28;20180;-79
2022/02/05 06:46:05;;;;;;;5.57;3.47;;;;;;;4.48;99.17;101907.88;10448056;28;20033;-79
2022/02/05 06:51:06;;;;;;;9.43;4.30;;;;;;;4.32;96.90;101924.44;10451988;28;20129;-79
2022/02/05 06:56:07;;;;;;;8.82;2.80;;;;;;;4.11;96.82;101924.41;10433615;28;20120;-79
2022/02/05 07:01:07;;;;;;;14.35;3.40;;;;;;;3.98;96.17;101924.59;10427761;28;20060;-78
2022/02/05 07:06:08;;;;;;;18.02;4.63;;;;;;;3.91;96.42;101942.19;10429106;28;20033;-79
2022/02/05 07:11:09;;;;;;;30.35;4.05;;;;;;;3.83;97.06;101939.28;10445434;28;20025;-79
2022/02/05 07:16:17;;;;;;;5.22;3.10;;;;;;;3.87;96.48;101949.63;10432375;28;20044;-79
2022/02/05 07:21:28;;;;;;;10.82;3.40;;;;;;;3.85;96.73;101959.63;10462721;28;20037;-79
2022/02/05 07:31:57;;;;;;;12.35;3.33;;;;;;;3.93;98.40;101967.88;10446480;28;20037;-79
2022/02/05 07:37:01;;;;;;;9.48;4.40;;;;;;;4.01;97.69;101966.38;10443892;28;20093;-79
2022/02/05 07:42:04;;;;;;;21.55;3.10;;;;;;;3.92;96.99;101982.28;10429653;28;20495;-80
2022/02/05 07:47:04;;;;;;;12.95;3.13;;;;;;;3.96;96.96;101983.72;10450270;28;20110;-79
2022/02/05 07:52:06;;;;;;;7.35;3.80;;;;;;;4.45;97.77;101983.22;10426144;28;20439;-79
2022/02/05 07:57:06;;;;;;;17.48;3.90;;;;;;;4.98;97.23;101967.84;10426299;28;20045;-79
2022/02/05 08:02:07;;;;;;;18.25;4.25;;;;;;;5.52;96.63;101968.41;10443992;28;20037;-78
2022/02/05 08:07:09;;;;;;;13.55;3.50;;;;;;;5.94;97.33;101965.56;10444309;28;20095;-80
2022/02/05 08:12:13;;;;;;;9.25;4.18;;;;;;;5.60;96.87;101964.06;10442792;28;20530;-79
2022/02/05 08:17:24;;;;;;;12.55;3.65;;;;;;;5.79;98.40;101963.25;10463437;28;20037;-79
2022/02/05 08:22:32;;;;;;;7.30;2.88;;;;;;;5.93;98.81;101953.09;10413793;28;20039;-80
2022/02/05 08:27:35;;;;;;;17.50;4.43;;;;;;;5.83;96.30;101964.66;10441790;28;20055;-78
2022/02/05 08:32:35;;;;;;;8.43;2.33;;;;;;;6.89;94.36;101959.28;10425356;28;20032;-77
2022/02/05 08:37:48;;;;;;;8.02;4.43;;;;;;;7.54;92.32;101970.88;10442525;28;20071;-80
2022/02/05 08:42:49;;;;;;;13.52;4.50;;;;;;;8.13;88.85;101980.22;10442769;28;20155;-80
2022/02/05 08:48:09;;;;;;;8.68;3.63;;;;;;;8.67;89.27;102004.47;10424206;28;20056;-81
2022/02/05 08:53:10;;;;;;;4.47;2.88;;;;;;;8.67;88.83;102004.47;10441593;28;20025;-81
2022/02/05 08:58:19;;;;;;;17.27;4.00;;;;;;;9.05;87.03;102027.53;10425712;28;20069;-81
2022/02/05 09:03:34;;;;;;;12.73;3.92;;;;;;;9.58;88.53;102030.16;10457103;28;20067;-81
2022/02/05 09:08:42;;;;;;;19.10;2.70;;;;;;;9.60;85.77;102017.31;10423098;28;20532;-82
2022/02/05 09:14:15;;;;;;;7.50;2.88;;;;;;;9.84;79.32;102003.84;10450245;28;20056;-82
2022/02/05 09:19:24;;;;;;;8.80;4.30;;;;;;;10.10;80.09;102002.88;10459356;28;20074;-81
2022/02/05 09:24:43;;;;;;;6.63;3.55;;;;;;;10.21;80.25;102006.13;10435216;28;20064;-82
2022/02/05 09:30:15;;;;;;;11.80;4.28;;;;;;;10.28;79.86;102006.34;10467557;28;20071;-82
2022/02/05 09:35:17;;;;;;;16.33;3.85;;;;;;;10.60;78.87;101997.34;10501492;28;20028;-82
2022/02/05 09:40:24;;;;;;;11.85;3.28;;;;;;;10.35;77.17;101977.56;10441726;28;20052;-81
2022/02/05 09:45:27;;;;;;;7.57;2.78;;;;;;;10.44;74.25;101990.06;10441946;28;20037;-81
2022/02/05 09:50:35;;;;;;;11.23;3.17;;;;;;;10.52;72.78;101983.78;10422615;28;20110;-81
2022/02/05 09:55:37;;;;;;;6.18;1.92;;;;;;;10.77;74.94;101983.78;10422737;28;20465;-81
2022/02/05 10:00:38;;;;;;;9.23;3.08;;;;;;;10.82;71.36;101982.25;10422500;28;20116;-80
2022/02/05 10:06:24;;;;;;;5.22;2.50;;;;;;;11.17;72.09;101985.53;10423052;28;20449;-80
2022/02/05 10:11:25;;;;;;;9.52;2.13;;;;;;;11.17;69.16;101971.97;10409770;28;20073;-79
2022/02/05 10:16:36;;;;;;;16.50;2.90;;;;;;;11.69;71.73;101981.41;10436842;28;20033;-80
2022/02/05 10:21:59;;;;;;;8.80;3.10;;;;;;;12.39;71.94;101975.00;10427745;28;20037;-82
2022/02/05 10:27:00;;;;;;;8.80;3.08;;;;;;;11.70;69.00;101978.50;10407491;28;20066;-82
2022/02/05 10:32:23;;;;;;;9.18;3.13;;;;;;;10.54;72.83;101997.19;10405829;28;20112;-82
2022/02/05 10:37:28;;;;;;;4.82;2.58;;;;;;;9.96;72.70;101983.59;10407235;28;20351;-80
2022/02/05 10:48:06;;;;;;;7.38;3.80;;;;;;;9.93;72.83;101978.50;10439647;28;20135;-81
2022/02/05 11:09:27;;;;;;;5.80;2.58;;;;;;;10.59;67.39;101981.25;10399212;28;20399;-82
2022/02/05 11:20:18;;;;;;;14.75;3.45;;;;;;;10.47;68.29;101967.25;10440756;28;20472;-81
2022/02/05 11:25:19;;;;;;;11.02;3.67;;;;;;;11.01;67.36;101948.50;10429018;28;20039;-82
2022/02/05 11:30:36;;;;;;;8.68;3.10;;;;;;;11.14;72.54;101942.50;10428415;28;20024;-81
2022/02/05 11:41:47;;;;;;;6.93;2.40;;;;;;;10.92;66.85;101939.53;10467609;28;19951;-82
2022/02/05 11:47:22;;;;;;;5.40;3.22;;;;;;;9.89;69.58;101936.59;10444290;28;20052;-82
2022/02/05 11:52:42;;;;;;;8.30;3.17;;;;;;;10.28;69.39;101933.22;10452757;28;20059;-82
2022/02/05 11:58:01;;;;;;;13.75;4.40;;;;;;;10.55;70.35;101939.28;10470852;28;20036;-82
2022/02/05 12:03:41;;;;;;;5.45;2.33;;;;;;;10.98;68.55;101907.34;10448610;28;20353;-82
2022/02/05 12:08:43;;;;;;;18.23;4.82;;;;;;;10.66;72.71;101898.31;10467840;28;20032;-82
2022/02/05 12:13:46;;;;;;;9.07;3.58;;;;;;;10.98;71.56;101889.22;10444128;28;20037;-82
2022/02/05 12:19:12;;;;;;;9.55;3.10;;;;;;;10.79;66.94;101885.06;10434994;28;20029;-82
2022/02/05 12:24:33;;;;;;;10.13;3.17;;;;;;;10.19;70.12;101890.91;10442024;28;20024;-82
2022/02/05 12:29:36;;;;;;;16.70;3.95;;;;;;;9.80;71.44;101878.06;10414459;28;20025;-82
2022/02/05 12:34:52;;;;;;;12.00;3.25;;;;;;;9.87;72.78;101883.66;10424589;28;20041;-82
2022/02/05 12:40:02;;;;;;;15.00;3.05;;;;;;;9.79;75.87;101881.78;10408610;28;20360;-81
2022/02/05 12:45:24;;;;;;;5.45;3.05;;;;;;;10.48;69.84;101880.38;10460138;28;20367;-82
2022/02/05 12:50:28;;;;;;;6.93;3.25;;;;;;;10.62;69.57;101854.44;10440468;28;20045;-82
2022/02/05 12:55:34;;;;;;;7.82;2.67;;;;;;;10.05;72.93;101867.22;10440698;28;20047;-82
2022/02/05 13:00:37;;;;;;;8.80;4.50;;;;;;;10.14;70.21;101864.34;10429571;28;20051;-82
2022/02/05 13:05:38;;;;;;;11.50;2.33;;;;;;;10.36;69.76;101841.16;10441387;28;20029;-82
2022/02/05 13:10:44;;;;;;;7.20;2.72;;;;;;;10.48;68.47;101833.50;10439983;28;20045;-82
2022/02/05 13:15:44;;;;;;;6.78;2.78;;;;;;;10.55;67.60;101831.78;10423190;28;20495;-82
2022/02/05 13:42:19;;;;;;;10.27;3.55;;;;;;;9.85;70.72;101799.09;10456697;28;20025;-81
2022/02/05 13:53:18;;;;;;;12.75;3.90;;;;;;;9.51;73.63;101779.34;10422902;28;20044;-83
2022/02/05 13:58:38;;;;;;;14.32;3.78;;;;;;;9.40;75.06;101789.66;10426670;28;20037;-81
2022/02/05 14:04:23;;;;;;;14.80;2.85;;;;;;;8.98;74.54;101771.69;10440166;28;20041;-82
2022/02/05 14:09:34;;;;;;;4.03;2.35;;;;;;;8.85;77.61;101775.69;10459086;28;20163;-82
2022/02/05 14:14:36;;;;;;;3.95;2.75;;;;;;;8.66;76.08;101754.38;10469586;28;20021;-82
2022/02/05 14:19:37;;;;;;;16.00;4.20;;;;;;;8.51;76.92;101759.56;10432888;28;20041;-80
2022/02/05 14:25:06;;;;;;;23.38;4.28;;;;;;;8.26;78.48;101777.44;10447333;28;20025;-81
2022/02/05 14:30:13;;;;;;;12.68;4.97;;;;;;;8.18;78.83;101768.50;10430021;28;20032;-81
2022/02/05 14:41:01;;;;;;;9.10;2.72;;;;;;;8.16;79.74;101745.19;10437337;28;20060;-81
2022/02/05 14:46:02;;;;;;;11.82;3.88;;;;;;;8.21;79.50;101744.72;10475320;28;20033;-81
2022/02/05 14:51:03;;;;;;;8.90;4.10;;;;;;;8.42;78.38;101728.13;10441499;28;20548;-80
2022/02/05 14:56:07;;;;;;;25.25;5.75;;;;;;;8.15;79.75;101734.56;10447702;28;20053;-79
2022/02/05 15:01:10;;;;;;;20.23;4.95;;;;;;;8.09;81.12;101736.06;10432645;28;20052;-81
2022/02/05 15:06:17;;;;;;;10.55;3.80;;;;;;;7.98;80.14;101714.78;10463241;28;20032;-80
2022/02/05 15:11:41;;;;;;;24.08;4.28;;;;;;;7.93;80.76;101714.41;10430789;28;20463;-80
2022/02/05 15:16:50;;;;;;;26.50;5.88;;;;;;;7.90;80.51;101712.88;10444509;28;20514;-80
2022/02/05 15:21:57;;;;;;;16.50;4.57;;;;;;;7.82;80.40;101703.91;10427591;28;20032;-80
2022/02/05 15:27:07;;;;;;;19.83;4.93;;;;;;;7.76;80.45;101685.66;10448365;28;20089;-79
2022/02/05 15:32:37;;;;;;;13.65;3.22;;;;;;;7.74;80.92;101687.66;10465028;28;20119;-80
2022/02/05 15:37:48;;;;;;;21.08;5.68;;;;;;;7.73;80.78;101665.25;10447297;28;20131;-79
2022/02/05 15:48:10;;;;;;;20.67;3.42;;;;;;;7.74;80.93;101650.75;10457767;28;20032;-80
2022/02/05 15:53:17;;;;;;;15.77;3.45;;;;;;;7.71;81.27;101640.28;10455036;28;20117;-80
2022/02/05 15:58:22;;;;;;;9.80;3.45;;;;;;;7.73;81.36;101634.75;10447236;28;20045;-81
2022/02/05 16:03:24;;;;;;;7.95;4.15;;;;;;;7.73;81.85;101637.47;10412552;28;20071;-81
2022/02/05 16:08:25;;;;;;;14.45;3.38;;;;;;;7.75;81.99;101630.03;10426713;28;20032;-80
2022/02/05 16:13:26;;;;;;;6.13;2.97;;;;;;;7.73;80.82;101624.81;10426133;28;20060;-80
2022/02/05 16:18:28;;;;;;;15.07;3.97;;;;;;;7.73;81.04;101630.22;10442664;28;20116;-81
2022/02/05 16:23:28;;;;;;;7.60;3.00;;;;;;;7.72;81.22;101619.56;10425069;28;20055;-81
2022/02/05 16:28:33;;;;;;;14.07;4.43;;;;;;;7.73;81.65;101618.59;10442847;28;20035;-81
2022/02/05 16:33:37;;;;;;;16.20;4.03;;;;;;;7.72;81.77;101606.09;10442777;28;20033;-81
2022/02/05 16:38:42;;;;;;;9.93;4.05;;;;;;;7.68;82.31;101598.31;10444347;28;20029;-81
2022/02/05 16:43:47;;;;;;;13.05;3.58;;;;;;;7.67;82.50;101590.41;10434434;28;20433;-81
2022/02/05 16:48:48;;;;;;;5.10;3.53;;;;;;;7.65;82.95;101590.56;10443616;28;20028;-81
2022/02/05 16:53:50;;;;;;;10.45;3.55;;;;;;;7.69;83.47;101572.25;10429162;28;20067;-81
2022/02/05 16:58:52;;;;;;;23.67;5.82;;;;;;;7.67;84.33;101563.47;10458415;28;20494;-81
2022/02/05 17:03:53;;;;;;;16.17;4.65;;;;;;;7.70;84.43;101544.25;10408136;28;20060;-81
2022/02/05 17:08:55;;;;;;;10.10;3.53;;;;;;;7.71;85.04;101545.94;10408202;28;20056;-81
2022/02/05 17:14:18;;;;;;;10.38;3.55;;;;;;;7.69;85.43;101527.25;10427319;28;20037;-81
2022/02/05 17:19:19;;;;;;;16.45;5.75;;;;;;;7.76;85.05;101529.28;10440219;28;20415;-82
2022/02/05 17:24:20;;;;;;;9.32;4.05;;;;;;;7.80;85.14;101544.97;10443633;28;20167;-80
2022/02/05 17:29:22;;;;;;;15.00;4.93;;;;;;;7.85;85.01;101544.50;10466078;28;20036;-81
2022/02/05 17:34:23;;;;;;;17.40;5.25;;;;;;;7.72;87.08;101555.72;10452052;28;20372;-81
2022/02/05 17:39:30;;;;;;;16.60;6.47;;;;;;;7.35;91.05;101551.50;10441531;28;20032;-82
2022/02/05 17:44:30;;;;;;;7.80;5.03;;;;;;;7.13;93.16;101539.44;10432197;28;20025;-80
2022/02/05 17:49:31;;;;;;;13.15;4.55;;;;;;;7.02;94.80;101557.69;10463480;28;20029;-81
2022/02/05 17:54:34;;;;;;;25.40;4.90;;;;;;;6.89;97.48;101540.13;10437012;28;20079;-81
2022/02/05 17:59:34;;;;;;;11.00;3.92;;;;;;;6.85;98.65;101536.06;10447087;28;20452;-81
2022/02/05 18:04:35;;;;;;;23.02;4.60;;;;;;;6.84;99.31;101539.75;10446745;28;20163;-81
2022/02/05 18:14:46;;;;;;;24.80;6.45;;;;;;;6.77;100.00;101514.47;10446141;28;20032;-81
2022/02/05 18:19:51;;;;;;;13.27;4.85;;;;;;;6.80;100.00;101494.47;10430744;28;20095;-82
2022/02/05 18:24:54;;;;;;;10.07;4.97;;;;;;;6.73;100.00;101500.50;10453151;28;20036;-81
2022/02/05 18:29:55;;;;;;;12.10;5.03;;;;;;;6.72;100.00;101484.47;10468303;28;20080;-81
2022/02/05 18:35:04;;;;;;;24.83;6.03;;;;;;;6.70;100.00;101475.72;10494128;28;20028;-81
2022/02/05 18:40:05;;;;;;;27.77;4.10;;;;;;;6.69;100.00;101460.56;10481487;28;20033;-80
2022/02/05 18:45:09;;;;;;;24.98;5.10;;;;;;;6.74;100.00;101439.44;10459253;28;20112;-80
2022/02/05 18:50:14;;;;;;;24.88;6.72;;;;;;;6.79;100.00;101434.38;10413084;28;20033;-80
2022/02/05 18:55:17;;;;;;;24.88;7.00;;;;;;;6.79;100.00;101438.94;10463561;28;20148;-80
2022/02/05 19:00:27;;;;;;;28.50;6.88;;;;;;;6.75;100.00;101433.88;10428027;28;20410;-81
2022/02/05 19:18:07;;;;;;;9.05;4.90;;;;;;;6.82;100.00;101419.78;10446307;28;20032;-80
2022/02/05 19:21:32;;;;;;;27.13;5.18;;;;;;;6.84;100.00;101412.38;10434787;28;20045;-80
2022/02/05 19:26:32;;;;;;;15.32;5.53;;;;;;;6.92;100.00;101417.78;10411134;28;20033;-81
2022/02/05 19:31:34;;;;;;;12.93;6.82;;;;;;;6.96;100.00;101403.03;10428413;28;20353;-80
2022/02/05 19:36:45;;;;;;;22.02;6.57;;;;;;;6.98;100.00;101392.91;10427104;28;20345;-81
2022/02/05 19:41:50;;;;;;;17.42;5.38;;;;;;;7.02;100.00;101375.47;10428594;28;20119;-79
2022/02/05 19:46:57;;;;;;;26.00;5.57;;;;;;;7.02;100.00;101378.16;10442492;28;20445;-80
2022/02/05 19:51:59;;;;;;;11.48;5.80;;;;;;;7.07;100.00;101361.50;10461018;28;20036;-80
2022/02/05 19:57:01;;;;;;;16.08;5.03;;;;;;;7.09;100.00;101356.81;10459182;28;20064;-79
2022/02/05 20:02:04;;;;;;;32.80;5.70;;;;;;;7.09;100.00;101300.25;10425495;28;20029;-79
2022/02/05 20:07:27;;;;;;;13.00;5.57;;;;;;;7.12;100.00;101346.53;10441601;28;20033;-80
2022/02/05 20:12:28;;;;;;;21.10;5.25;;;;;;;7.12;100.00;101332.22;10457897;28;20028;-80
2022/02/05 20:17:32;;;;;;;15.73;5.75;;;;;;;7.11;100.00;101344.81;10424869;28;20025;-80
2022/02/05 20:22:35;;;;;;;24.80;6.22;;;;;;;7.13;100.00;101339.28;10440812;28;20031;-80
2022/02/05 20:27:36;;;;;;;20.83;6.32;;;;;;;7.08;100.00;101329.00;10441971;28;20024;-79
2022/02/05 20:32:36;;;;;;;14.85;5.75;;;;;;;7.12;100.00;101318.78;10440530;28;20472;-79
2022/02/05 20:37:37;;;;;;;24.88;5.78;;;;;;;7.16;100.00;101318.25;10440706;28;20025;-78
2022/02/05 20:42:38;;;;;;;19.10;6.60;;;;;;;7.14;100.00;101322.13;10458273;28;20039;-77
2022/02/05 20:47:39;;;;;;;22.90;5.85;;;;;;;7.14;100.00;101305.97;10459913;28;20060;-78
2022/02/05 20:52:39;;;;;;;43.03;7.90;;;;;;;7.15;100.00;101295.03;10424248;28;20079;-78
2022/02/05 20:57:40;;;;;;;29.25;5.55;;;;;;;7.13;100.00;101280.03;10396843;28;20049;-77
2022/02/05 21:02:42;;;;;;;18.90;5.43;;;;;;;7.13;100.00;101275.50;10413825;28;20029;-77
2022/02/05 21:07:43;;;;;;;27.52;7.15;;;;;;;7.12;100.00;101284.59;10414199;28;20040;-76
2022/02/05 21:12:43;;;;;;;23.88;6.43;;;;;;;7.16;100.00;101271.63;10413908;28;20030;-76
2022/02/05 21:17:45;;;;;;;23.98;6.10;;;;;;;7.15;100.00;101246.56;10412688;28;20106;-76
2022/02/05 21:22:46;;;;;;;11.88;6.80;;;;;;;7.17;100.00;101259.84;10397526;28;20029;-75
2022/02/05 21:27:54;;;;;;;22.42;7.00;;;;;;;7.16;100.00;101242.84;10396824;28;20033;-75
2022/02/05 21:33:02;;;;;;;23.35;7.60;;;;;;;7.16;100.00;101236.63;10414109;28;20025;-76
2022/02/05 21:38:03;;;;;;;17.77;6.20;;;;;;;7.19;100.00;101236.28;10412327;28;20026;-76
2022/02/05 21:43:03;;;;;;;24.40;6.65;;;;;;;7.21;100.00;101226.16;10412845;28;20033;-75
2022/02/05 21:48:04;;;;;;;14.52;6.60;;;;;;;7.21;100.00;101210.88;10396738;28;20369;-74
2022/02/05 21:53:06;;;;;;;30.92;6.60;;;;;;;7.25;100.00;101221.31;10359219;28;1179092;-74
2022/02/05 21:58:14;;;;;;;29.63;7.20;;;;;;;7.25;100.00;101199.78;10440324;28;20059;-73
2022/02/05 22:03:21;;;;;;;38.20;8.80;;;;;;;7.31;100.00;101162.22;10457576;28;20037;-73
2022/02/05 22:08:21;;;;;;;;;;;;;;;7.29;100.00;101187.63;10456467;28;20037;-73
2022/02/05 22:13:22;;;;;;;23.40;6.05;;;;;;;7.31;100.00;101180.25;10456878;28;20348;-73
2022/02/05 22:18:22;;;;;;;26.30;8.77;;;;;;;7.34;100.00;101191.50;10455076;28;20028;-73
2022/02/05 22:23:23;;;;;;;22.13;7.40;;;;;;;7.30;100.00;101165.91;10456053;28;20041;-73
2022/02/05 22:28:23;;;;;;;24.33;7.68;;;;;;;7.36;100.00;101159.00;10456046;28;20029;-73
2022/02/05 22:33:24;;;;;;;21.42;6.07;;;;;;;7.38;100.00;101162.38;10445884;28;20037;-74
2022/02/05 22:38:24;;;;;;;25.45;9.32;;;;;;;7.40;100.00;101147.72;10462521;28;20033;-73
2022/02/05 22:43:25;;;;;;;24.00;8.57;;;;;;;7.41;100.00;101153.97;10463198;28;20457;-73
2022/02/05 22:48:28;;;;;;;34.60;6.97;;;;;;;7.42;100.00;101134.91;10463537;28;20119;-73
2022/02/05 22:53:29;;;;;;;37.53;8.73;;;;;;;7.45;100.00;101133.72;10445571;28;20134;-73
2022/02/05 22:58:30;;;;;;;36.15;9.10;;;;;;;7.46;100.00;101128.16;10463437;28;20047;-73
2022/02/05 23:03:31;;;;;;;18.90;8.40;;;;;;;7.49;100.00;101105.41;10444815;28;20061;-73
2022/02/05 23:08:38;;;;;;;40.63;9.07;;;;;;;7.53;100.00;101096.00;10444607;28;20158;-73
2022/02/05 23:45:32;;;;;;;37.08;8.45;;;;;;;7.59;100.00;101056.72;10458570;28;20064;-73
2022/02/05 23:50:33;;;;;;;22.13;6.22;;;;;;;7.60;100.00;101040.38;10459993;28;20119;-73
2022/02/05 23:55:34;;;;;;;23.13;7.25;;;;;;;7.60;100.00;101026.09;10461763;28;20053;-73
